Terminal Aerodrome Forecast
Issued by NWS

Home | Current Version | Previous Version | Text Only | Print | Product List | Glossary On
Versions: 1 2 3 4 5 6 7 8 9 10 11 12 13 14 15 16 17 18 19 20 21 22 23 24 25 26 27
000
FTUS43 KAPX 240801 AAB
TAFTVC
TAF AMD
KTVC 240801Z 2408/2506 00000KT 6SM BR OVC004
      TEMPO 2408/2410 3SM BR
     FM241000 VRB03KT 1SM BR OVC002
      TEMPO 2410/2414 1/2SM FG
     FM241600 VRB03KT 4SM BR BKN004 OVC008=

USA.gov is the U.S. government's official web portal to all federal, state and local government web resources and services.